sensor_id;sensor_type;location;lat;lon;timestamp;pressure;altitude;pressure_sealevel;temperature;humidity
62011;BME280;47967;51.756;10.174;2022-07-11T00:00:15;100389.44;;;13.25;92.93
62011;BME280;47967;51.756;10.174;2022-07-11T00:04:18;100398.19;;;13.27;92.57
62011;BME280;47967;51.756;10.174;2022-07-11T00:08:20;100397.34;;;13.26;92.69
62011;BME280;47967;51.756;10.174;2022-07-11T00:12:24;100392.78;;;13.27;92.40
62011;BME280;47967;51.756;10.174;2022-07-11T00:16:28;100390.25;;;13.25;92.53
62011;BME280;47967;51.756;10.174;2022-07-11T00:20:30;100389.81;;;13.22;93.07
62011;BME280;47967;51.756;10.174;2022-07-11T00:24:33;100385.66;;;13.19;93.59
62011;BME280;47967;51.756;10.174;2022-07-11T00:28:37;100380.66;;;13.16;93.88
62011;BME280;47967;51.756;10.174;2022-07-11T00:32:39;100381.47;;;13.17;94.04
62011;BME280;47967;51.756;10.174;2022-07-11T00:36:42;100380.44;;;13.18;94.17
62011;BME280;47967;51.756;10.174;2022-07-11T00:40:45;100377.72;;;13.18;93.99
62011;BME280;47967;51.756;10.174;2022-07-11T00:44:49;100375.03;;;13.18;94.43
62011;BME280;47967;51.756;10.174;2022-07-11T00:48:52;100364.38;;;13.16;94.75
62011;BME280;47967;51.756;10.174;2022-07-11T00:52:55;100358.09;;;13.09;95.03
62011;BME280;47967;51.756;10.174;2022-07-11T00:56:58;100358.91;;;13.03;95.59
62011;BME280;47967;51.756;10.174;2022-07-11T01:01:03;100357.25;;;13.02;95.86
62011;BME280;47967;51.756;10.174;2022-07-11T01:05:06;100351.81;;;13.02;96.16
62011;BME280;47967;51.756;10.174;2022-07-11T01:09:09;100342.47;;;13.04;96.36
62011;BME280;47967;51.756;10.174;2022-07-11T01:13:11;100349.50;;;12.98;96.95
62011;BME280;47967;51.756;10.174;2022-07-11T01:17:15;100352.22;;;12.98;97.62
62011;BME280;47967;51.756;10.174;2022-07-11T01:21:22;100345.31;;;12.96;98.37
62011;BME280;47967;51.756;10.174;2022-07-11T01:25:26;100348.88;;;12.96;98.92
62011;BME280;47967;51.756;10.174;2022-07-11T01:29:32;100348.47;;;12.93;99.69
62011;BME280;47967;51.756;10.174;2022-07-11T01:33:34;100346.94;;;12.84;97.41
62011;BME280;47967;51.756;10.174;2022-07-11T01:37:37;100355.28;;;12.82;97.26
62011;BME280;47967;51.756;10.174;2022-07-11T01:41:41;100350.44;;;12.71;96.85
62011;BME280;47967;51.756;10.174;2022-07-11T01:45:43;100337.44;;;12.59;97.48
62011;BME280;47967;51.756;10.174;2022-07-11T01:49:46;100335.16;;;12.56;97.75
62011;BME280;47967;51.756;10.174;2022-07-11T01:53:49;100347.59;;;12.51;98.30
62011;BME280;47967;51.756;10.174;2022-07-11T01:57:53;100347.78;;;12.49;98.81
62011;BME280;47967;51.756;10.174;2022-07-11T02:01:55;100343.00;;;12.51;98.86
62011;BME280;47967;51.756;10.174;2022-07-11T02:06:00;100333.84;;;12.52;98.41
62011;BME280;47967;51.756;10.174;2022-07-11T02:10:03;100340.72;;;12.55;98.15
62011;BME280;47967;51.756;10.174;2022-07-11T02:14:07;100343.84;;;12.52;98.08
62011;BME280;47967;51.756;10.174;2022-07-11T02:18:10;100338.44;;;12.52;98.37
62011;BME280;47967;51.756;10.174;2022-07-11T02:22:12;100344.88;;;12.51;98.44
62011;BME280;47967;51.756;10.174;2022-07-11T02:26:16;100347.16;;;12.47;98.64
62011;BME280;47967;51.756;10.174;2022-07-11T02:30:20;100344.25;;;12.48;99.21
62011;BME280;47967;51.756;10.174;2022-07-11T02:34:23;100329.66;;;12.43;99.46
62011;BME280;47967;51.756;10.174;2022-07-11T02:38:25;100333.63;;;12.47;99.65
62011;BME280;47967;51.756;10.174;2022-07-11T02:42:28;100334.47;;;12.47;99.79
62011;BME280;47967;51.756;10.174;2022-07-11T02:46:32;100341.09;;;12.45;99.81
62011;BME280;47967;51.756;10.174;2022-07-11T02:50:35;100345.69;;;12.44;100.00
62011;BME280;47967;51.756;10.174;2022-07-11T02:54:37;100343.78;;;12.45;100.00
62011;BME280;47967;51.756;10.174;2022-07-11T02:58:40;100351.75;;;12.46;100.00
62011;BME280;47967;51.756;10.174;2022-07-11T03:02:43;100345.88;;;12.43;100.00
62011;BME280;47967;51.756;10.174;2022-07-11T03:06:46;100339.44;;;12.44;100.00
62011;BME280;47967;51.756;10.174;2022-07-11T03:10:49;100341.97;;;12.52;100.00
62011;BME280;47967;51.756;10.174;2022-07-11T03:14:51;100333.03;;;12.52;100.00
62011;BME280;47967;51.756;10.174;2022-07-11T03:18:56;100351.38;;;12.56;100.00
62011;BME280;47967;51.756;10.174;2022-07-11T03:22:58;100331.16;;;12.52;100.00
62011;BME280;47967;51.756;10.174;2022-07-11T03:27:01;100350.09;;;12.52;100.00
62011;BME280;47967;51.756;10.174;2022-07-11T03:31:10;100354.03;;;12.49;100.00
62011;BME280;47967;51.756;10.174;2022-07-11T03:35:14;100347.94;;;12.41;100.00
62011;BME280;47967;51.756;10.174;2022-07-11T03:39:34;100347.28;;;12.39;100.00
62011;BME280;47967;51.756;10.174;2022-07-11T03:43:37;100343.78;;;12.45;100.00
62011;BME280;47967;51.756;10.174;2022-07-11T03:47:40;100345.72;;;12.51;100.00
62011;BME280;47967;51.756;10.174;2022-07-11T03:51:44;100336.97;;;12.49;100.00
62011;BME280;47967;51.756;10.174;2022-07-11T03:55:46;100335.31;;;12.55;100.00
62011;BME280;47967;51.756;10.174;2022-07-11T03:59:49;100341.66;;;12.69;100.00
62011;BME280;47967;51.756;10.174;2022-07-11T04:03:52;100347.75;;;12.77;100.00
62011;BME280;47967;51.756;10.174;2022-07-11T04:07:55;100349.63;;;12.77;100.00
62011;BME280;47967;51.756;10.174;2022-07-11T04:11:58;100348.38;;;12.79;100.00
62011;BME280;47967;51.756;10.174;2022-07-11T04:16:01;100342.81;;;12.88;100.00
62011;BME280;47967;51.756;10.174;2022-07-11T04:20:05;100349.69;;;12.90;99.61
62011;BME280;47967;51.756;10.174;2022-07-11T04:24:09;100348.63;;;12.91;99.51
62011;BME280;47967;51.756;10.174;2022-07-11T04:28:11;100351.97;;;12.93;99.22
62011;BME280;47967;51.756;10.174;2022-07-11T04:32:14;100346.38;;;12.95;98.57
62011;BME280;47967;51.756;10.174;2022-07-11T04:36:17;100350.38;;;13.06;97.96
62011;BME280;47967;51.756;10.174;2022-07-11T04:40:21;100355.84;;;13.12;96.93
62011;BME280;47967;51.756;10.174;2022-07-11T04:44:24;100356.91;;;13.25;96.60
62011;BME280;47967;51.756;10.174;2022-07-11T04:48:27;100350.03;;;13.22;96.00
62011;BME280;47967;51.756;10.174;2022-07-11T04:52:30;100355.47;;;13.29;95.60
62011;BME280;47967;51.756;10.174;2022-07-11T04:56:34;100358.44;;;13.41;95.11
62011;BME280;47967;51.756;10.174;2022-07-11T05:00:36;100366.63;;;13.54;94.71
62011;BME280;47967;51.756;10.174;2022-07-11T05:04:43;100355.19;;;13.72;94.16
62011;BME280;47967;51.756;10.174;2022-07-11T05:08:45;100343.94;;;14.09;92.74
62011;BME280;47967;51.756;10.174;2022-07-11T05:12:49;100351.22;;;14.22;91.24
62011;BME280;47967;51.756;10.174;2022-07-11T05:16:52;100353.50;;;14.32;90.36
62011;BME280;47967;51.756;10.174;2022-07-11T05:20:55;100358.53;;;14.41;90.16
62011;BME280;47967;51.756;10.174;2022-07-11T05:24:59;100365.63;;;14.43;89.58
62011;BME280;47967;51.756;10.174;2022-07-11T05:29:03;100372.50;;;14.32;90.41
62011;BME280;47967;51.756;10.174;2022-07-11T05:33:05;100364.63;;;14.23;89.49
62011;BME280;47967;51.756;10.174;2022-07-11T05:37:08;100376.09;;;14.19;88.72
62011;BME280;47967;51.756;10.174;2022-07-11T05:41:10;100372.97;;;14.15;89.08
62011;BME280;47967;51.756;10.174;2022-07-11T05:45:14;100380.25;;;14.21;89.02
62011;BME280;47967;51.756;10.174;2022-07-11T05:49:17;100383.78;;;14.22;89.85
62011;BME280;47967;51.756;10.174;2022-07-11T05:53:20;100379.44;;;14.21;88.98
62011;BME280;47967;51.756;10.174;2022-07-11T05:57:22;100377.16;;;14.24;89.53
62011;BME280;47967;51.756;10.174;2022-07-11T06:01:26;100384.44;;;14.37;88.98
62011;BME280;47967;51.756;10.174;2022-07-11T06:05:37;100379.19;;;14.49;88.80
62011;BME280;47967;51.756;10.174;2022-07-11T06:09:39;100387.56;;;14.48;87.81
62011;BME280;47967;51.756;10.174;2022-07-11T06:13:43;100386.28;;;14.64;87.80
62011;BME280;47967;51.756;10.174;2022-07-11T06:17:48;100382.28;;;14.93;87.24
62011;BME280;47967;51.756;10.174;2022-07-11T06:21:57;100388.56;;;14.80;85.55
62011;BME280;47967;51.756;10.174;2022-07-11T06:25:59;100380.81;;;14.84;86.05
62011;BME280;47967;51.756;10.174;2022-07-11T06:30:02;100385.88;;;14.73;86.93
62011;BME280;47967;51.756;10.174;2022-07-11T06:34:06;100383.34;;;14.72;87.35
62011;BME280;47967;51.756;10.174;2022-07-11T06:38:08;100392.34;;;14.72;86.97
62011;BME280;47967;51.756;10.174;2022-07-11T06:42:11;100383.38;;;14.65;87.56
62011;BME280;47967;51.756;10.174;2022-07-11T06:46:14;100389.03;;;14.50;87.70
62011;BME280;47967;51.756;10.174;2022-07-11T06:50:18;100397.78;;;14.59;87.53
62011;BME280;47967;51.756;10.174;2022-07-11T06:54:21;100398.63;;;14.26;88.21
62011;BME280;47967;51.756;10.174;2022-07-11T06:58:23;100398.63;;;14.26;88.89
62011;BME280;47967;51.756;10.174;2022-07-11T07:02:35;100397.19;;;14.37;88.45
62011;BME280;47967;51.756;10.174;2022-07-11T07:06:39;100398.41;;;14.14;89.09
62011;BME280;47967;51.756;10.174;2022-07-11T07:10:42;100409.50;;;14.26;89.24
62011;BME280;47967;51.756;10.174;2022-07-11T07:14:45;100399.88;;;14.44;88.42
62011;BME280;47967;51.756;10.174;2022-07-11T07:18:47;100406.78;;;14.39;88.44
62011;BME280;47967;51.756;10.174;2022-07-11T07:22:53;100404.25;;;14.45;89.72
62011;BME280;47967;51.756;10.174;2022-07-11T07:26:55;100409.69;;;14.51;90.82
62011;BME280;47967;51.756;10.174;2022-07-11T07:30:58;100418.47;;;14.60;91.33
62011;BME280;47967;51.756;10.174;2022-07-11T07:35:01;100416.38;;;14.69;91.22
62011;BME280;47967;51.756;10.174;2022-07-11T07:39:05;100425.78;;;14.80;92.01
62011;BME280;47967;51.756;10.174;2022-07-11T07:43:08;100428.03;;;15.03;92.08
62011;BME280;47967;51.756;10.174;2022-07-11T07:47:11;100422.44;;;14.84;89.97
62011;BME280;47967;51.756;10.174;2022-07-11T07:51:14;100438.50;;;14.59;91.24
62011;BME280;47967;51.756;10.174;2022-07-11T07:55:18;100430.19;;;14.67;91.78
62011;BME280;47967;51.756;10.174;2022-07-11T07:59:21;100424.50;;;14.76;92.63
62011;BME280;47967;51.756;10.174;2022-07-11T08:03:26;100431.81;;;14.88;92.23
62011;BME280;47967;51.756;10.174;2022-07-11T08:07:28;100428.25;;;14.95;89.84
62011;BME280;47967;51.756;10.174;2022-07-11T08:11:33;100424.75;;;15.40;88.33
62011;BME280;47967;51.756;10.174;2022-07-11T08:15:36;100429.91;;;15.61;86.52
62011;BME280;47967;51.756;10.174;2022-07-11T08:19:39;100435.00;;;15.37;86.05
62011;BME280;47967;51.756;10.174;2022-07-11T08:23:41;100437.66;;;15.51;85.13
62011;BME280;47967;51.756;10.174;2022-07-11T08:27:45;100437.03;;;15.49;84.32
62011;BME280;47967;51.756;10.174;2022-07-11T08:31:48;100447.53;;;15.45;84.75
62011;BME280;47967;51.756;10.174;2022-07-11T08:35:50;100446.75;;;15.83;83.70
62011;BME280;47967;51.756;10.174;2022-07-11T08:39:53;100447.63;;;16.09;81.79
62011;BME280;47967;51.756;10.174;2022-07-11T08:43:57;100448.44;;;16.16;81.36
62011;BME280;47967;51.756;10.174;2022-07-11T08:48:00;100445.34;;;16.38;81.11
62011;BME280;47967;51.756;10.174;2022-07-11T08:52:05;100451.25;;;16.54;79.98
62011;BME280;47967;51.756;10.174;2022-07-11T08:56:10;100447.78;;;16.90;79.50
62011;BME280;47967;51.756;10.174;2022-07-11T09:00:17;100446.13;;;16.45;79.64
62011;BME280;47967;51.756;10.174;2022-07-11T09:04:22;100441.63;;;16.26;79.65
62011;BME280;47967;51.756;10.174;2022-07-11T09:08:26;100451.25;;;16.03;79.70
62011;BME280;47967;51.756;10.174;2022-07-11T09:12:29;100447.88;;;16.33;78.20
62011;BME280;47967;51.756;10.174;2022-07-11T09:16:51;100439.38;;;16.48;78.79
62011;BME280;47967;51.756;10.174;2022-07-11T09:20:55;100443.81;;;16.42;76.90
62011;BME280;47967;51.756;10.174;2022-07-11T09:25:15;100448.72;;;16.33;76.85
62011;BME280;47967;51.756;10.174;2022-07-11T09:29:31;100445.19;;;16.77;75.89
62011;BME280;47967;51.756;10.174;2022-07-11T09:33:37;100433.50;;;16.70;77.72
62011;BME280;47967;51.756;10.174;2022-07-11T09:38:02;100438.53;;;17.17;75.50
62011;BME280;47967;51.756;10.174;2022-07-11T09:42:05;100435.19;;;17.15;74.33
62011;BME280;47967;51.756;10.174;2022-07-11T09:46:07;100434.91;;;16.79;76.04
62011;BME280;47967;51.756;10.174;2022-07-11T09:50:12;100444.50;;;17.07;74.69
62011;BME280;47967;51.756;10.174;2022-07-11T09:54:15;100436.06;;;16.90;74.96
62011;BME280;47967;51.756;10.174;2022-07-11T09:58:18;100431.94;;;17.06;74.97
62011;BME280;47967;51.756;10.174;2022-07-11T10:02:24;100440.25;;;17.11;73.74
62011;BME280;47967;51.756;10.174;2022-07-11T10:06:28;100444.81;;;17.17;73.39
62011;BME280;47967;51.756;10.174;2022-07-11T10:10:33;100447.69;;;17.41;72.43
62011;BME280;47967;51.756;10.174;2022-07-11T10:14:42;100451.81;;;17.62;71.32
62011;BME280;47967;51.756;10.174;2022-07-11T10:18:53;100451.13;;;17.67;71.49
62011;BME280;47967;51.756;10.174;2022-07-11T10:23:06;100456.19;;;18.12;68.88
62011;BME280;47967;51.756;10.174;2022-07-11T10:27:16;100452.31;;;18.32;67.11
62011;BME280;47967;51.756;10.174;2022-07-11T10:31:23;100447.19;;;18.12;69.31
62011;BME280;47967;51.756;10.174;2022-07-11T10:35:48;100437.88;;;18.01;68.97
62011;BME280;47967;51.756;10.174;2022-07-11T10:39:58;100444.09;;;18.08;68.07
62011;BME280;47967;51.756;10.174;2022-07-11T10:44:01;100446.53;;;18.52;67.47
62011;BME280;47967;51.756;10.174;2022-07-11T10:48:10;100449.63;;;18.79;65.74
62011;BME280;47967;51.756;10.174;2022-07-11T10:52:21;100448.81;;;19.02;64.35
62011;BME280;47967;51.756;10.174;2022-07-11T10:56:45;100461.44;;;18.26;65.19
62011;BME280;47967;51.756;10.174;2022-07-11T11:01:10;100454.97;;;17.77;66.86
62011;BME280;47967;51.756;10.174;2022-07-11T11:05:40;100462.03;;;18.16;67.00
62011;BME280;47967;51.756;10.174;2022-07-11T11:09:43;100456.03;;;18.49;65.27
62011;BME280;47967;51.756;10.174;2022-07-11T11:14:22;100460.63;;;18.37;65.68
62011;BME280;47967;51.756;10.174;2022-07-11T11:18:35;100473.06;;;18.21;66.02
62011;BME280;47967;51.756;10.174;2022-07-11T11:22:38;100464.91;;;17.72;66.78
62011;BME280;47967;51.756;10.174;2022-07-11T11:26:43;100455.47;;;17.56;68.17
62011;BME280;47967;51.756;10.174;2022-07-11T11:30:53;100458.53;;;17.29;69.35
62011;BME280;47967;51.756;10.174;2022-07-11T11:34:57;100456.56;;;17.36;69.52
62011;BME280;47967;51.756;10.174;2022-07-11T11:39:00;100458.47;;;17.36;71.31
62011;BME280;47967;51.756;10.174;2022-07-11T11:43:02;100453.94;;;17.90;72.10
62011;BME280;47967;51.756;10.174;2022-07-11T11:47:06;100454.06;;;18.14;70.79
62011;BME280;47967;51.756;10.174;2022-07-11T11:51:17;100461.81;;;18.29;70.11
62011;BME280;47967;51.756;10.174;2022-07-11T11:55:20;100467.16;;;17.93;69.61
62011;BME280;47967;51.756;10.174;2022-07-11T11:59:29;100471.16;;;17.60;72.66
62011;BME280;47967;51.756;10.174;2022-07-11T12:03:48;100459.94;;;17.50;73.61
62011;BME280;47967;51.756;10.174;2022-07-11T12:07:50;100457.97;;;17.57;72.11
62011;BME280;47967;51.756;10.174;2022-07-11T12:11:53;100457.31;;;17.43;72.11
62011;BME280;47967;51.756;10.174;2022-07-11T12:16:13;100454.47;;;17.69;72.50
62011;BME280;47967;51.756;10.174;2022-07-11T12:20:38;100461.84;;;17.99;70.90
62011;BME280;47967;51.756;10.174;2022-07-11T12:24:46;100456.44;;;18.11;70.10
62011;BME280;47967;51.756;10.174;2022-07-11T12:29:03;100451.16;;;17.97;70.08
62011;BME280;47967;51.756;10.174;2022-07-11T12:33:12;100454.13;;;17.96;68.75
62011;BME280;47967;51.756;10.174;2022-07-11T12:37:17;100463.16;;;17.96;69.58
62011;BME280;47967;51.756;10.174;2022-07-11T12:41:20;100463.06;;;17.84;69.88
62011;BME280;47967;51.756;10.174;2022-07-11T12:45:23;100478.03;;;17.63;70.74
62011;BME280;47967;51.756;10.174;2022-07-11T12:49:26;100473.41;;;17.64;71.91
62011;BME280;47967;51.756;10.174;2022-07-11T12:53:30;100472.75;;;17.50;72.33
62011;BME280;47967;51.756;10.174;2022-07-11T12:57:33;100462.94;;;17.79;71.74
62011;BME280;47967;51.756;10.174;2022-07-11T13:01:36;100469.66;;;18.26;71.68
62011;BME280;47967;51.756;10.174;2022-07-11T13:05:48;100461.53;;;18.97;68.50
62011;BME280;47967;51.756;10.174;2022-07-11T13:09:53;100451.34;;;19.74;66.46
62011;BME280;47967;51.756;10.174;2022-07-11T13:13:55;100451.84;;;20.28;64.62
62011;BME280;47967;51.756;10.174;2022-07-11T13:17:58;100454.84;;;21.17;62.57
62011;BME280;47967;51.756;10.174;2022-07-11T13:22:02;100451.03;;;21.63;61.52
62011;BME280;47967;51.756;10.174;2022-07-11T13:26:06;100449.19;;;21.46;59.76
62011;BME280;47967;51.756;10.174;2022-07-11T13:30:11;100450.97;;;21.13;61.32
62011;BME280;47967;51.756;10.174;2022-07-11T13:34:17;100445.94;;;20.71;63.55
62011;BME280;47967;51.756;10.174;2022-07-11T13:38:20;100452.47;;;21.04;63.17
62011;BME280;47967;51.756;10.174;2022-07-11T13:42:24;100442.72;;;20.40;63.59
62011;BME280;47967;51.756;10.174;2022-07-11T13:46:26;100439.28;;;19.98;64.26
62011;BME280;47967;51.756;10.174;2022-07-11T13:50:31;100439.03;;;19.30;66.52
62011;BME280;47967;51.756;10.174;2022-07-11T13:54:33;100441.50;;;19.32;66.71
62011;BME280;47967;51.756;10.174;2022-07-11T13:58:37;100441.41;;;19.15;67.92
62011;BME280;47967;51.756;10.174;2022-07-11T14:02:40;100447.47;;;19.29;67.24
62011;BME280;47967;51.756;10.174;2022-07-11T14:06:43;100446.44;;;19.06;68.02
62011;BME280;47967;51.756;10.174;2022-07-11T14:10:56;100450.22;;;19.05;68.17
62011;BME280;47967;51.756;10.174;2022-07-11T14:15:00;100452.25;;;18.98;68.13
62011;BME280;47967;51.756;10.174;2022-07-11T14:19:03;100448.59;;;18.92;68.33
62011;BME280;47967;51.756;10.174;2022-07-11T14:23:08;100446.66;;;18.81;68.99
62011;BME280;47967;51.756;10.174;2022-07-11T14:27:13;100446.66;;;18.69;69.48
62011;BME280;47967;51.756;10.174;2022-07-11T14:31:17;100455.91;;;18.44;69.05
62011;BME280;47967;51.756;10.174;2022-07-11T14:35:21;100443.91;;;18.57;69.83
62011;BME280;47967;51.756;10.174;2022-07-11T14:39:24;100442.97;;;18.63;71.28
62011;BME280;47967;51.756;10.174;2022-07-11T14:43:27;100447.84;;;18.61;69.74
62011;BME280;47967;51.756;10.174;2022-07-11T14:47:31;100468.53;;;18.15;70.95
62011;BME280;47967;51.756;10.174;2022-07-11T14:51:34;100459.25;;;18.04;75.51
62011;BME280;47967;51.756;10.174;2022-07-11T14:55:57;100462.50;;;17.64;78.96
62011;BME280;47967;51.756;10.174;2022-07-11T15:00:19;100466.03;;;17.34;80.50
62011;BME280;47967;51.756;10.174;2022-07-11T15:04:24;100456.56;;;17.18;81.16
62011;BME280;47967;51.756;10.174;2022-07-11T15:08:28;100452.31;;;17.22;81.21
62011;BME280;47967;51.756;10.174;2022-07-11T15:12:48;100459.50;;;17.53;78.97
62011;BME280;47967;51.756;10.174;2022-07-11T15:16:50;100467.88;;;17.70;77.92
62011;BME280;47967;51.756;10.174;2022-07-11T15:20:54;100478.81;;;17.52;78.64
62011;BME280;47967;51.756;10.174;2022-07-11T15:24:57;100470.84;;;17.50;78.06
62011;BME280;47967;51.756;10.174;2022-07-11T15:29:01;100464.66;;;17.92;78.37
62011;BME280;47967;51.756;10.174;2022-07-11T15:33:03;100470.06;;;18.53;76.13
62011;BME280;47967;51.756;10.174;2022-07-11T15:37:07;100469.88;;;19.02;73.14
62011;BME280;47967;51.756;10.174;2022-07-11T15:41:10;100466.06;;;19.03;72.46
62011;BME280;47967;51.756;10.174;2022-07-11T15:45:13;100459.69;;;19.38;71.25
62011;BME280;47967;51.756;10.174;2022-07-11T15:49:15;100465.34;;;19.60;71.21
62011;BME280;47967;51.756;10.174;2022-07-11T15:53:19;100460.41;;;19.74;69.86
62011;BME280;47967;51.756;10.174;2022-07-11T15:57:22;100464.06;;;19.51;70.85
62011;BME280;47967;51.756;10.174;2022-07-11T16:01:25;100458.78;;;19.32;71.82
62011;BME280;47967;51.756;10.174;2022-07-11T16:05:34;100465.94;;;18.98;72.98
62011;BME280;47967;51.756;10.174;2022-07-11T16:09:39;100471.97;;;18.88;73.73
62011;BME280;47967;51.756;10.174;2022-07-11T16:13:41;100467.34;;;19.00;73.88
62011;BME280;47967;51.756;10.174;2022-07-11T16:17:44;100472.13;;;18.93;74.41
62011;BME280;47967;51.756;10.174;2022-07-11T16:21:48;100464.16;;;18.92;73.97
62011;BME280;47967;51.756;10.174;2022-07-11T16:25:52;100470.19;;;18.58;73.96
62011;BME280;47967;51.756;10.174;2022-07-11T16:29:55;100476.34;;;17.99;75.59
62011;BME280;47967;51.756;10.174;2022-07-11T16:33:57;100481.00;;;17.62;79.12
62011;BME280;47967;51.756;10.174;2022-07-11T16:38:01;100489.47;;;17.16;82.81
62011;BME280;47967;51.756;10.174;2022-07-11T16:42:05;100485.47;;;16.75;86.80
62011;BME280;47967;51.756;10.174;2022-07-11T16:47:37;100482.06;;;16.29;89.59
62011;BME280;47967;51.756;10.174;2022-07-11T16:51:40;100482.56;;;16.12;91.19
62011;BME280;47967;51.756;10.174;2022-07-11T16:55:43;100482.41;;;16.07;93.01
62011;BME280;47967;51.756;10.174;2022-07-11T16:59:46;100487.91;;;15.94;93.17
62011;BME280;47967;51.756;10.174;2022-07-11T17:03:50;100480.84;;;15.79;94.03
62011;BME280;47967;51.756;10.174;2022-07-11T17:07:52;100472.91;;;15.84;94.41
62011;BME280;47967;51.756;10.174;2022-07-11T17:12:13;100477.22;;;15.99;94.09
62011;BME280;47967;51.756;10.174;2022-07-11T17:16:15;100481.31;;;16.15;93.71
62011;BME280;47967;51.756;10.174;2022-07-11T17:20:19;100474.38;;;16.19;93.50
62011;BME280;47967;51.756;10.174;2022-07-11T17:24:22;100469.75;;;16.20;94.06
62011;BME280;47967;51.756;10.174;2022-07-11T17:28:25;100465.09;;;16.27;94.55
62011;BME280;47967;51.756;10.174;2022-07-11T17:32:29;100467.25;;;16.18;94.12
62011;BME280;47967;51.756;10.174;2022-07-11T17:36:33;100464.16;;;16.40;94.28
62011;BME280;47967;51.756;10.174;2022-07-11T17:40:36;100461.66;;;16.63;92.98
62011;BME280;47967;51.756;10.174;2022-07-11T17:44:38;100459.72;;;16.96;91.41
62011;BME280;47967;51.756;10.174;2022-07-11T17:48:41;100462.84;;;17.18;90.09
62011;BME280;47967;51.756;10.174;2022-07-11T17:52:45;100466.09;;;17.46;88.54
62011;BME280;47967;51.756;10.174;2022-07-11T17:56:49;100461.63;;;17.33;87.73
62011;BME280;47967;51.756;10.174;2022-07-11T18:00:52;100468.06;;;17.38;87.81
62011;BME280;47967;51.756;10.174;2022-07-11T18:04:55;100463.69;;;17.37;87.52
62011;BME280;47967;51.756;10.174;2022-07-11T18:08:59;100468.59;;;17.28;87.88
62011;BME280;47967;51.756;10.174;2022-07-11T18:13:01;100468.22;;;17.25;88.64
62011;BME280;47967;51.756;10.174;2022-07-11T18:17:04;100467.59;;;17.04;89.65
62011;BME280;47967;51.756;10.174;2022-07-11T18:21:07;100467.72;;;16.91;88.77
62011;BME280;47967;51.756;10.174;2022-07-11T18:25:12;100460.63;;;16.83;89.37
62011;BME280;47967;51.756;10.174;2022-07-11T18:29:15;100468.75;;;16.90;90.18
62011;BME280;47967;51.756;10.174;2022-07-11T18:33:18;100471.53;;;16.83;90.08
62011;BME280;47967;51.756;10.174;2022-07-11T18:37:20;100472.75;;;16.69;90.44
62011;BME280;47967;51.756;10.174;2022-07-11T18:41:24;100483.25;;;16.65;91.65
62011;BME280;47967;51.756;10.174;2022-07-11T18:45:27;100482.94;;;16.73;92.12
62011;BME280;47967;51.756;10.174;2022-07-11T18:49:31;100485.50;;;16.68;92.46
62011;BME280;47967;51.756;10.174;2022-07-11T18:53:34;100479.94;;;16.56;93.43
62011;BME280;47967;51.756;10.174;2022-07-11T18:57:38;100475.28;;;16.38;94.00
62011;BME280;47967;51.756;10.174;2022-07-11T19:01:40;100473.31;;;16.20;94.78
62011;BME280;47967;51.756;10.174;2022-07-11T19:05:44;100476.34;;;16.05;94.96
62011;BME280;47967;51.756;10.174;2022-07-11T19:09:46;100475.41;;;15.86;95.68
62011;BME280;47967;51.756;10.174;2022-07-11T19:13:50;100473.84;;;15.58;96.79
62011;BME280;47967;51.756;10.174;2022-07-11T19:17:53;100475.16;;;15.42;98.18
62011;BME280;47967;51.756;10.174;2022-07-11T19:21:56;100476.91;;;15.16;99.17
62011;BME280;47967;51.756;10.174;2022-07-11T19:25:59;100479.47;;;14.91;99.12
62011;BME280;47967;51.756;10.174;2022-07-11T19:30:04;100487.81;;;14.69;98.97
62011;BME280;47967;51.756;10.174;2022-07-11T19:34:08;100480.31;;;14.65;99.32
62011;BME280;47967;51.756;10.174;2022-07-11T19:38:11;100481.97;;;14.59;99.24
62011;BME280;47967;51.756;10.174;2022-07-11T19:42:13;100490.94;;;14.39;99.27
62011;BME280;47967;51.756;10.174;2022-07-11T19:46:17;100492.16;;;14.17;100.00
62011;BME280;47967;51.756;10.174;2022-07-11T19:50:20;100488.56;;;14.03;100.00
62011;BME280;47967;51.756;10.174;2022-07-11T19:54:23;100488.13;;;13.92;100.00
62011;BME280;47967;51.756;10.174;2022-07-11T19:58:43;100494.75;;;13.76;100.00
62011;BME280;47967;51.756;10.174;2022-07-11T20:02:48;100498.75;;;13.81;100.00
62011;BME280;47967;51.756;10.174;2022-07-11T20:06:52;100499.13;;;13.71;100.00
62011;BME280;47967;51.756;10.174;2022-07-11T20:10:54;100502.81;;;13.63;100.00
62011;BME280;47967;51.756;10.174;2022-07-11T20:14:57;100507.00;;;13.66;100.00
62011;BME280;47967;51.756;10.174;2022-07-11T20:19:01;100512.75;;;13.84;100.00
62011;BME280;47967;51.756;10.174;2022-07-11T20:23:03;100519.41;;;13.88;100.00
62011;BME280;47967;51.756;10.174;2022-07-11T20:27:06;100515.25;;;13.92;100.00
62011;BME280;47967;51.756;10.174;2022-07-11T20:31:09;100520.22;;;13.82;100.00
62011;BME280;47967;51.756;10.174;2022-07-11T20:35:13;100525.22;;;13.79;100.00
62011;BME280;47967;51.756;10.174;2022-07-11T20:39:16;100525.81;;;13.74;100.00
62011;BME280;47967;51.756;10.174;2022-07-11T20:43:19;100527.91;;;13.72;100.00
62011;BME280;47967;51.756;10.174;2022-07-11T20:47:21;100530.38;;;13.67;100.00
62011;BME280;47967;51.756;10.174;2022-07-11T20:51:26;100529.41;;;13.74;100.00
62011;BME280;47967;51.756;10.174;2022-07-11T20:55:29;100530.81;;;13.70;100.00
62011;BME280;47967;51.756;10.174;2022-07-11T20:59:31;100542.75;;;13.76;100.00